Yu Xian, China
Current Conditions -  °F | °C
As of 1:00 AM on Thursday 27 Nov 2014 (Local Time) from ZBSJ Reporting Station
Moderate Fog Moderate Fog  
Wind Chill: 37°   Ceiling: Unl
Heat Index: 37°   Visibility: 0.06mi
Dew Point: 37°   Wind: 2mph
Humidity: 100%   Direction: 350°N
Pressure: 30.15"   Gusts: NA
Location:  39.83°N, 114.57°E
Report Text: ZBSJ 261700Z 35001MPS 0100 R33/0600N FG NSC 03/03 Q1021 NOSIG
Loading
Personal Weather Stations






























Interactive Weather Map New forecast layout! Learn more

10-Day Weather Forecast

Advertisements
Track Severe Weather on mobile